createdAt,value
2018-03-31T09:35:44.324Z,6888
2018-03-31T09:35:56.913Z,6792
2018-03-31T09:36:09.508Z,6772
2018-03-31T09:36:22.109Z,6760
2018-03-31T09:36:34.712Z,6744
2018-03-31T09:36:47.357Z,6732
2018-03-31T09:36:59.949Z,6724
2018-03-31T09:37:12.531Z,6720
2018-03-31T09:37:25.125Z,6724
2018-03-31T09:37:37.711Z,6716
2018-03-31T09:37:50.305Z,6724
2018-03-31T09:38:02.964Z,6728
2018-03-31T09:38:15.553Z,6732
2018-03-31T09:38:28.140Z,6740
2018-03-31T09:38:40.730Z,6740
2018-03-31T09:38:53.318Z,6744
2018-03-31T09:39:05.908Z,6748
2018-03-31T09:39:18.540Z,6756
2018-03-31T09:39:31.156Z,6760
2018-03-31T09:39:43.805Z,6764
2018-03-31T09:39:56.430Z,6768
2018-03-31T09:40:09.035Z,6776
2018-03-31T09:40:21.646Z,6788
2018-03-31T09:40:34.238Z,6800
2018-03-31T09:40:46.829Z,6808
2018-03-31T09:40:59.419Z,6824
2018-03-31T09:41:12.011Z,6844
2018-03-31T09:41:24.600Z,6868
2018-03-31T09:41:37.192Z,6900
2018-03-31T09:41:49.774Z,6924
2018-03-31T09:42:02.370Z,6964
2018-03-31T09:42:14.955Z,7000
2018-03-31T09:42:27.562Z,7032
2018-03-31T09:42:40.173Z,7068
2018-03-31T09:42:52.760Z,7108
2018-03-31T09:43:05.354Z,7148
2018-03-31T09:43:17.963Z,7192
2018-03-31T09:43:30.553Z,7228
2018-03-31T09:43:43.146Z,7276
2018-03-31T09:43:55.735Z,7320
2018-03-31T09:44:08.373Z,7368
2018-03-31T09:44:20.912Z,7416
2018-03-31T09:44:33.501Z,7468
2018-03-31T09:44:46.094Z,7516
2018-03-31T09:44:58.679Z,7572
2018-03-31T09:45:11.290Z,7616
2018-03-31T09:45:23.878Z,7660
2018-03-31T09:45:36.470Z,7712
2018-03-31T09:45:49.082Z,7764
2018-03-31T09:46:01.696Z,7816
2018-03-31T09:46:14.310Z,7856
2018-03-31T09:46:26.901Z,7904
2018-03-31T09:46:39.517Z,7944
2018-03-31T09:46:52.131Z,7976
2018-03-31T09:47:04.702Z,8012
2018-03-31T09:47:17.351Z,8056
2018-03-31T09:47:29.947Z,8088
2018-03-31T09:47:42.538Z,8132
2018-03-31T09:47:55.126Z,8172
2018-03-31T09:48:07.719Z,8204
2018-03-31T09:48:20.310Z,8236
2018-03-31T09:48:32.898Z,8268
2018-03-31T09:48:45.496Z,8300
2018-03-31T09:48:58.103Z,8320
2018-03-31T09:49:10.695Z,8344
2018-03-31T09:49:23.284Z,8360
2018-03-31T09:49:35.876Z,8384
2018-03-31T09:49:48.481Z,8396
2018-03-31T09:50:01.096Z,8400
2018-03-31T09:50:13.707Z,8392
2018-03-31T09:50:26.323Z,8396
2018-03-31T09:50:38.932Z,8392
2018-03-31T09:50:51.520Z,8400
2018-03-31T09:51:04.113Z,8404
2018-03-31T09:51:16.705Z,8408
2018-03-31T09:51:29.299Z,8396
2018-03-31T09:51:41.960Z,8412
2018-03-31T09:51:54.582Z,8424
2018-03-31T09:52:07.213Z,8444
2018-03-31T09:52:19.824Z,8464
2018-03-31T09:52:32.422Z,8484
2018-03-31T09:52:45.037Z,8500
2018-03-31T09:52:57.654Z,8516
2018-03-31T09:53:10.237Z,8516
2018-03-31T09:53:22.828Z,8524
2018-03-31T09:53:35.418Z,8524
2018-03-31T09:53:48.009Z,8524
2018-03-31T09:54:00.626Z,8524
2018-03-31T09:54:13.213Z,8516
2018-03-31T09:54:25.822Z,8516
2018-03-31T09:54:38.413Z,8508
2018-03-31T09:54:51.052Z,8496
2018-03-31T09:55:03.649Z,8480
2018-03-31T09:55:16.263Z,8464
2018-03-31T09:55:28.865Z,8436
2018-03-31T09:55:41.471Z,8408
2018-03-31T09:55:54.057Z,8392
2018-03-31T09:56:06.646Z,8364
2018-03-31T09:56:19.240Z,8328
2018-03-31T09:56:31.855Z,8292
2018-03-31T09:56:44.532Z,8248
2018-03-31T09:56:57.139Z,8192
2018-03-31T09:57:09.751Z,8128
2018-03-31T09:57:22.375Z,8056
2018-03-31T09:57:34.989Z,7972
2018-03-31T09:57:47.578Z,7888
2018-03-31T09:58:00.177Z,7792
2018-03-31T09:58:12.795Z,7700
2018-03-31T09:58:25.380Z,7600
2018-03-31T09:58:37.988Z,7500
2018-03-31T09:58:50.606Z,7392
2018-03-31T09:59:03.195Z,7288
2018-03-31T09:59:15.789Z,7172
2018-03-31T09:59:28.401Z,7060
2018-03-31T09:59:40.987Z,6948
2018-03-31T09:59:53.582Z,6836
2018-03-31T10:00:06.400Z,6732
2018-03-31T10:00:19.024Z,6620
2018-03-31T10:00:31.625Z,6524
2018-03-31T10:00:44.223Z,6432
2018-03-31T10:00:57.034Z,6344
2018-03-31T10:01:09.621Z,6256
2018-03-31T10:01:22.214Z,6184
2018-03-31T10:01:34.805Z,6116
2018-03-31T10:01:47.408Z,6052
2018-03-31T10:01:59.995Z,5988
2018-03-31T10:02:12.599Z,5928
2018-03-31T10:02:25.407Z,5876
2018-03-31T10:02:37.997Z,5808
2018-03-31T10:02:50.586Z,5752
2018-03-31T10:03:03.201Z,5700
2018-03-31T10:03:15.820Z,5656
2018-03-31T10:03:28.406Z,5616
2018-03-31T10:03:40.998Z,5580
2018-03-31T10:03:53.593Z,5552
2018-03-31T10:04:06.213Z,5532
2018-03-31T10:04:18.822Z,5520
2018-03-31T10:04:31.414Z,5520
2018-03-31T10:04:44.002Z,5524
2018-03-31T10:04:56.602Z,5536
2018-03-31T10:05:09.210Z,5552
2018-03-31T10:05:21.800Z,5576
2018-03-31T10:05:34.393Z,5604
2018-03-31T10:05:46.988Z,5636
2018-03-31T10:05:59.636Z,5672
2018-03-31T10:06:12.198Z,5704
2018-03-31T10:06:24.785Z,5748
2018-03-31T10:06:37.384Z,5784
2018-03-31T10:06:49.967Z,5824
2018-03-31T10:07:02.573Z,5872
2018-03-31T10:07:15.171Z,5912
2018-03-31T10:07:27.758Z,5956
2018-03-31T10:07:40.352Z,6000
2018-03-31T10:07:52.967Z,6044
2018-03-31T10:08:05.583Z,6092
2018-03-31T10:08:18.171Z,6136
2018-03-31T10:08:30.766Z,6180
2018-03-31T10:08:43.377Z,6220
2018-03-31T10:08:55.968Z,6268
2018-03-31T10:09:08.559Z,6308
2018-03-31T10:09:21.147Z,6344
2018-03-31T10:09:33.753Z,6368
2018-03-31T10:09:46.407Z,6400
2018-03-31T10:09:59.004Z,6416
2018-03-31T10:10:11.604Z,6432
2018-03-31T10:10:24.198Z,6448
2018-03-31T10:10:36.805Z,6460
2018-03-31T10:10:49.393Z,6464
2018-03-31T10:11:01.983Z,6460
2018-03-31T10:11:14.577Z,6456
2018-03-31T10:11:27.191Z,6440
2018-03-31T10:11:40.033Z,6412
2018-03-31T10:11:52.658Z,6372
2018-03-31T10:12:05.243Z,6324
2018-03-31T10:12:17.839Z,6268
2018-03-31T10:12:30.440Z,6200
2018-03-31T10:12:43.033Z,6136
2018-03-31T10:12:55.633Z,6060
2018-03-31T10:13:08.243Z,5988
2018-03-31T10:13:20.856Z,5916
2018-03-31T10:13:33.452Z,5848
2018-03-31T10:13:46.094Z,5780
2018-03-31T10:13:58.716Z,5716
2018-03-31T10:14:11.613Z,5664
2018-03-31T10:14:24.184Z,5624
2018-03-31T10:14:36.782Z,5592
2018-03-31T10:14:49.411Z,5568
2018-03-31T10:15:02.044Z,5556
2018-03-31T10:15:14.689Z,5552
2018-03-31T10:15:27.319Z,5560
2018-03-31T10:15:39.912Z,5568
2018-03-31T10:15:52.504Z,5592
2018-03-31T10:16:05.136Z,5624
2018-03-31T10:16:17.729Z,5668
2018-03-31T10:16:30.316Z,5724
2018-03-31T10:16:42.909Z,5788
2018-03-31T10:16:55.520Z,5872
2018-03-31T10:17:08.111Z,5976
2018-03-31T10:17:20.708Z,6100
2018-03-31T10:17:33.316Z,6244
2018-03-31T10:17:45.907Z,6412
2018-03-31T10:17:58.501Z,6600
2018-03-31T10:18:11.119Z,6824
2018-03-31T10:18:23.732Z,7068
2018-03-31T10:18:36.325Z,7336
2018-03-31T10:18:48.938Z,7608
2018-03-31T10:19:01.531Z,7912
2018-03-31T10:19:14.120Z,8232
2018-03-31T10:19:26.713Z,8568
2018-03-31T10:19:39.330Z,8920
2018-03-31T10:19:51.914Z,9272
2018-03-31T10:20:04.506Z,9628
2018-03-31T10:20:17.098Z,9980
2018-03-31T10:20:29.716Z,10316
2018-03-31T10:20:42.329Z,10636
2018-03-31T10:20:54.920Z,10928
2018-03-31T10:21:07.511Z,11220
2018-03-31T10:21:20.107Z,11484
2018-03-31T10:21:32.702Z,11728
2018-03-31T10:21:45.296Z,11948
2018-03-31T10:21:57.884Z,12148
2018-03-31T10:22:10.476Z,12328
2018-03-31T10:22:23.068Z,12484
2018-03-31T10:22:35.721Z,12628
2018-03-31T10:22:48.265Z,12756
2018-03-31T10:23:00.859Z,12864
2018-03-31T10:23:13.454Z,12968
2018-03-31T10:23:26.045Z,13060
2018-03-31T10:23:38.642Z,13132
2018-03-31T10:23:51.233Z,13200
2018-03-31T10:24:03.823Z,13260
2018-03-31T10:24:16.414Z,13308
2018-03-31T10:24:29.012Z,13348
2018-03-31T10:24:41.600Z,13388
2018-03-31T10:24:54.192Z,13416
2018-03-31T10:25:06.809Z,13436
2018-03-31T10:25:19.426Z,13452
2018-03-31T10:25:32.040Z,13468
2018-03-31T10:25:44.629Z,13480
2018-03-31T10:25:57.225Z,13492
2018-03-31T10:26:09.824Z,13496
2018-03-31T10:26:22.414Z,13508
2018-03-31T10:26:35.001Z,13528
2018-03-31T10:26:47.601Z,13532
2018-03-31T10:27:00.192Z,13548
2018-03-31T10:27:12.784Z,13548
2018-03-31T10:27:25.397Z,13556
2018-03-31T10:27:37.988Z,13568
2018-03-31T10:27:50.580Z,13576
2018-03-31T10:28:03.168Z,13588
2018-03-31T10:28:15.774Z,13596
2018-03-31T10:28:28.358Z,13612
2018-03-31T10:28:40.949Z,13628
2018-03-31T10:28:53.541Z,13632
2018-03-31T10:29:06.135Z,13632
2018-03-31T10:29:18.788Z,13640
2018-03-31T10:29:31.318Z,13648
2018-03-31T10:29:43.935Z,13640
2018-03-31T10:29:56.548Z,13640
2018-03-31T10:30:09.145Z,13636
2018-03-31T10:30:21.756Z,13640
2018-03-31T10:30:34.351Z,13644
2018-03-31T10:30:46.946Z,13652
2018-03-31T10:30:59.562Z,13656
2018-03-31T10:31:12.178Z,13664
2018-03-31T10:31:24.775Z,13668
2018-03-31T10:31:37.413Z,13680
2018-03-31T10:31:50.010Z,13692
2018-03-31T10:32:02.627Z,13704
2018-03-31T10:32:15.218Z,13720
2018-03-31T10:32:27.812Z,13736
2018-03-31T10:32:40.429Z,13756
2018-03-31T10:32:53.045Z,13776
2018-03-31T10:33:05.636Z,13800
2018-03-31T10:33:18.305Z,13820
2018-03-31T10:33:30.892Z,13844
2018-03-31T10:33:43.489Z,13868
2018-03-31T10:33:56.072Z,13904
2018-03-31T10:34:08.671Z,13940
2018-03-31T10:34:21.258Z,13968
2018-03-31T10:34:33.849Z,14000
2018-03-31T10:34:46.447Z,14040
2018-03-31T10:34:59.111Z,14080
2018-03-31T10:35:11.806Z,14120
2018-03-31T10:35:24.489Z,14160
2018-03-31T10:35:37.111Z,14200
2018-03-31T10:35:49.795Z,14248
2018-03-31T10:36:02.426Z,14284
2018-03-31T10:36:15.018Z,14312
2018-03-31T10:36:27.646Z,14340
2018-03-31T10:36:40.220Z,14356
2018-03-31T10:36:52.814Z,14388
2018-03-31T10:37:05.404Z,14404
2018-03-31T10:37:17.998Z,14432
2018-03-31T10:37:30.590Z,14464
2018-03-31T10:37:43.201Z,14480
2018-03-31T10:37:55.792Z,14496
2018-03-31T10:38:08.385Z,14512
2018-03-31T10:38:20.998Z,14536
2018-03-31T10:38:33.588Z,14560
2018-03-31T10:38:46.195Z,14592
2018-03-31T10:38:58.777Z,14608
2018-03-31T10:39:11.371Z,14636
2018-03-31T10:39:23.967Z,14664
2018-03-31T10:39:36.551Z,14684
2018-03-31T10:39:49.152Z,14716
2018-03-31T10:40:01.734Z,14744
2018-03-31T10:40:14.325Z,14756
2018-03-31T10:40:26.915Z,14800
2018-03-31T10:40:39.509Z,14836
2018-03-31T10:40:52.127Z,14868
2018-03-31T10:41:04.743Z,14912
2018-03-31T10:41:17.332Z,14948
2018-03-31T10:41:29.930Z,14988
2018-03-31T10:41:42.559Z,15032
2018-03-31T10:41:55.115Z,15080
2018-03-31T10:42:07.715Z,15120
2018-03-31T10:42:20.334Z,15160
2018-03-31T10:42:32.955Z,15204
2018-03-31T10:42:45.539Z,15248
2018-03-31T10:42:58.133Z,15284
2018-03-31T10:43:10.745Z,15328
2018-03-31T10:43:23.370Z,15364
2018-03-31T10:43:35.960Z,15416
2018-03-31T10:43:48.556Z,15456
2018-03-31T10:44:01.170Z,15488
2018-03-31T10:44:13.785Z,15524
2018-03-31T10:44:26.377Z,15552
2018-03-31T10:44:39.016Z,15580
2018-03-31T10:44:51.619Z,15600
2018-03-31T10:45:04.230Z,15636
2018-03-31T10:45:16.849Z,15656
2018-03-31T10:45:29.461Z,15676
2018-03-31T10:45:42.057Z,15692
2018-03-31T10:45:54.652Z,15716
2018-03-31T10:46:07.239Z,15736
2018-03-31T10:46:19.837Z,15744
2018-03-31T10:46:32.421Z,15752
2018-03-31T10:46:45.016Z,15760
2018-03-31T10:46:57.638Z,15760
2018-03-31T10:47:10.280Z,15760
2018-03-31T10:47:22.918Z,15752
2018-03-31T10:47:35.509Z,15736
2018-03-31T10:47:48.098Z,15720
2018-03-31T10:48:00.695Z,15708
2018-03-31T10:48:13.302Z,15688
2018-03-31T10:48:25.894Z,15676
2018-03-31T10:48:38.487Z,15652
2018-03-31T10:48:51.098Z,15628
2018-03-31T10:49:03.697Z,15596
2018-03-31T10:49:16.314Z,15556
2018-03-31T10:49:28.926Z,15520
2018-03-31T10:49:41.519Z,15492
2018-03-31T10:49:54.118Z,15468
2018-03-31T10:50:06.703Z,15432
2018-03-31T10:50:19.300Z,15384
2018-03-31T10:50:31.916Z,15324
2018-03-31T10:50:44.511Z,15256
2018-03-31T10:50:57.143Z,15200
2018-03-31T10:51:09.734Z,15144
2018-03-31T10:51:22.614Z,15088
2018-03-31T10:51:35.313Z,15040
2018-03-31T10:51:47.950Z,15004
2018-03-31T10:52:00.678Z,14972
2018-03-31T10:52:13.551Z,14936
2018-03-31T10:52:26.247Z,14892
2018-03-31T10:52:38.868Z,14876
2018-03-31T10:52:51.466Z,14808
2018-03-31T10:53:04.055Z,14792
2018-03-31T10:53:16.649Z,14752
2018-03-31T10:53:29.237Z,14724
2018-03-31T10:53:41.832Z,14688
2018-03-31T10:53:54.426Z,14672
2018-03-31T10:54:07.049Z,14648
2018-03-31T10:54:19.665Z,14624
2018-03-31T10:54:32.259Z,14620
2018-03-31T10:54:44.877Z,14620
2018-03-31T10:54:57.475Z,14600
2018-03-31T10:55:10.070Z,14548
2018-03-31T10:55:22.661Z,14528
2018-03-31T10:55:35.305Z,14508
2018-03-31T10:55:47.954Z,14504
2018-03-31T10:56:00.543Z,14532
2018-03-31T10:56:13.138Z,14588
2018-03-31T10:56:25.734Z,14628
2018-03-31T10:56:38.346Z,14652
2018-03-31T10:56:50.938Z,14672
2018-03-31T10:57:03.538Z,14668
2018-03-31T10:57:16.152Z,14668
2018-03-31T10:57:28.768Z,14676
2018-03-31T10:57:41.361Z,14692
2018-03-31T10:57:54.016Z,14712
2018-03-31T10:58:06.638Z,14748
2018-03-31T10:58:19.231Z,14888
2018-03-31T10:58:31.830Z,14976
2018-03-31T10:58:44.448Z,15056
2018-03-31T10:58:57.083Z,15132
2018-03-31T10:59:09.682Z,15228
2018-03-31T10:59:22.276Z,15340
2018-03-31T10:59:34.886Z,15444
2018-03-31T10:59:47.484Z,15536
2018-03-31T11:00:00.070Z,15616
2018-03-31T11:00:12.667Z,15684
2018-03-31T11:00:25.268Z,15752
2018-03-31T11:00:37.882Z,15816
2018-03-31T11:00:50.506Z,15880
2018-03-31T11:01:03.317Z,15924
2018-03-31T11:01:15.914Z,15968
2018-03-31T11:01:28.529Z,16016
2018-03-31T11:01:41.142Z,16068
2018-03-31T11:01:53.741Z,16080
2018-03-31T11:02:06.359Z,16080
2018-03-31T11:02:18.945Z,16128
2018-03-31T11:02:31.543Z,16228
2018-03-31T11:02:44.133Z,16348
2018-03-31T11:02:56.731Z,16452
2018-03-31T11:03:09.319Z,16532
2018-03-31T11:03:21.909Z,16864
2018-03-31T11:03:34.501Z,17024
2018-03-31T11:03:47.096Z,17216
2018-03-31T11:03:59.710Z,17408
2018-03-31T11:04:12.299Z,17536
2018-03-31T11:04:24.895Z,17632
2018-03-31T11:04:37.507Z,17696
2018-03-31T11:04:50.101Z,17664
2018-03-31T11:05:02.695Z,17728
2018-03-31T11:05:15.309Z,17696
2018-03-31T11:05:27.957Z,17664
2018-03-31T11:05:40.534Z,17664
2018-03-31T11:05:53.127Z,17568
2018-03-31T11:06:05.720Z,17504
2018-03-31T11:06:18.320Z,17472
2018-03-31T11:06:30.927Z,17408
2018-03-31T11:06:43.524Z,17312
2018-03-31T11:06:56.112Z,17280
2018-03-31T11:07:08.706Z,17216
2018-03-31T11:07:21.297Z,17152
2018-03-31T11:07:33.894Z,17088
2018-03-31T11:07:46.574Z,17024
2018-03-31T11:07:59.208Z,16896
2018-03-31T11:08:11.802Z,16832
2018-03-31T11:08:24.391Z,16768
2018-03-31T11:08:36.982Z,16704
2018-03-31T11:08:49.577Z,16640
2018-03-31T11:09:02.176Z,16428
2018-03-31T11:09:14.789Z,16368
2018-03-31T11:09:27.377Z,16736
2018-03-31T11:09:40.042Z,16640
2018-03-31T11:09:52.642Z,16424
2018-03-31T11:10:05.234Z,16312
2018-03-31T11:10:17.846Z,16220
2018-03-31T11:10:30.440Z,16128
2018-03-31T11:10:43.059Z,16068
2018-03-31T11:10:55.670Z,15984
2018-03-31T11:11:08.289Z,15900
2018-03-31T11:11:20.885Z,15832
2018-03-31T11:11:33.486Z,15760
2018-03-31T11:11:46.079Z,15700
2018-03-31T11:11:58.673Z,15648
2018-03-31T11:12:11.267Z,15604
2018-03-31T11:12:23.889Z,15580
2018-03-31T11:12:36.580Z,15552
2018-03-31T11:12:49.253Z,15508
2018-03-31T11:13:02.017Z,15468
2018-03-31T11:13:14.613Z,15436
2018-03-31T11:13:27.237Z,15416
2018-03-31T11:13:39.837Z,15368
2018-03-31T11:13:52.449Z,15320
2018-03-31T11:14:05.046Z,15324
2018-03-31T11:14:17.641Z,15344
2018-03-31T11:14:30.253Z,15348
2018-03-31T11:14:42.847Z,15316
2018-03-31T11:14:55.444Z,15276
2018-03-31T11:15:08.031Z,15200
2018-03-31T11:15:20.623Z,15112
2018-03-31T11:15:33.214Z,15060
2018-03-31T11:15:45.808Z,14980
2018-03-31T11:15:58.423Z,14900
2018-03-31T11:16:11.020Z,14820
2018-03-31T11:16:23.630Z,14752
2018-03-31T11:16:36.266Z,14684
2018-03-31T11:16:48.855Z,14684
2018-03-31T11:17:01.466Z,14680
2018-03-31T11:17:14.106Z,14740
2018-03-31T11:17:26.702Z,14784
2018-03-31T11:17:39.299Z,14828
2018-03-31T11:17:51.889Z,14852
2018-03-31T11:18:04.481Z,14896
2018-03-31T11:18:17.078Z,14928
2018-03-31T11:18:29.694Z,14992
2018-03-31T11:18:42.312Z,15080
2018-03-31T11:18:54.928Z,15140
2018-03-31T11:19:07.760Z,15168
2018-03-31T11:19:20.368Z,15196
2018-03-31T11:19:32.962Z,15228
2018-03-31T11:19:45.561Z,15248
2018-03-31T11:19:58.147Z,15196
2018-03-31T11:20:10.838Z,15156
2018-03-31T11:20:23.436Z,15168
2018-03-31T11:20:36.061Z,15192
2018-03-31T11:20:48.674Z,15196
2018-03-31T11:21:01.270Z,15208
2018-03-31T11:21:13.866Z,15212
2018-03-31T11:21:26.680Z,15192
2018-03-31T11:21:39.273Z,15156
2018-03-31T11:21:51.910Z,15112
2018-03-31T11:22:04.496Z,15044
2018-03-31T11:22:17.126Z,14960
2018-03-31T11:22:29.757Z,14876
2018-03-31T11:22:42.369Z,14748
2018-03-31T11:22:54.964Z,14592
2018-03-31T11:23:07.560Z,14476
2018-03-31T11:23:20.171Z,14384
2018-03-31T11:23:32.755Z,14292
2018-03-31T11:23:45.375Z,14168
2018-03-31T11:23:57.990Z,14048
2018-03-31T11:24:10.581Z,13896
2018-03-31T11:24:23.184Z,13732
2018-03-31T11:24:35.797Z,13600
2018-03-31T11:24:48.420Z,13368
2018-03-31T11:25:01.024Z,13152
2018-03-31T11:25:13.621Z,12992
2018-03-31T11:25:26.218Z,12856
2018-03-31T11:25:38.833Z,12700
2018-03-31T11:25:51.451Z,12528
2018-03-31T11:26:04.067Z,12368
2018-03-31T11:26:16.660Z,12352
2018-03-31T11:26:29.253Z,12292
2018-03-31T11:26:41.850Z,12176
2018-03-31T11:26:54.430Z,12020
2018-03-31T11:27:07.028Z,11872
2018-03-31T11:27:19.646Z,11744
2018-03-31T11:27:32.242Z,11636
2018-03-31T11:27:44.851Z,11396
2018-03-31T11:27:57.446Z,11208
2018-03-31T11:28:10.063Z,11060
2018-03-31T11:28:22.679Z,11000
2018-03-31T11:28:35.275Z,10956
2018-03-31T11:28:47.863Z,10920
2018-03-31T11:29:00.455Z,10872
2018-03-31T11:29:13.055Z,10836
2018-03-31T11:29:25.646Z,10764
2018-03-31T11:29:38.257Z,10780
2018-03-31T11:29:50.846Z,10772
2018-03-31T11:30:03.439Z,10784
2018-03-31T11:30:16.033Z,10772
2018-03-31T11:30:28.647Z,10764
2018-03-31T11:30:41.238Z,10776
2018-03-31T11:30:53.840Z,10800
2018-03-31T11:31:06.427Z,10844
2018-03-31T11:31:19.019Z,10892
2018-03-31T11:31:31.613Z,10948
2018-03-31T11:31:44.211Z,11036
2018-03-31T11:31:56.818Z,11120
2018-03-31T11:32:09.414Z,11212
2018-03-31T11:32:22.051Z,11284
2018-03-31T11:32:34.618Z,11352
2018-03-31T11:32:47.283Z,11412
2018-03-31T11:32:59.872Z,11484
2018-03-31T11:33:12.474Z,11540
2018-03-31T11:33:25.063Z,11572
2018-03-31T11:33:37.658Z,11596
2018-03-31T11:33:50.300Z,11604
2018-03-31T11:34:02.888Z,11636
2018-03-31T11:34:15.480Z,11692
2018-03-31T11:34:28.084Z,11756
2018-03-31T11:34:40.693Z,11864
2018-03-31T11:34:53.290Z,11976
2018-03-31T11:35:05.887Z,12064
2018-03-31T11:35:18.490Z,12184
2018-03-31T11:35:31.099Z,12320
2018-03-31T11:35:43.696Z,12484
2018-03-31T11:35:56.294Z,12672
2018-03-31T11:36:08.908Z,12896
2018-03-31T11:36:21.498Z,13148
2018-03-31T11:36:34.091Z,13368
2018-03-31T11:36:46.684Z,13608
2018-03-31T11:36:59.294Z,13864
2018-03-31T11:37:11.888Z,14116
2018-03-31T11:37:24.482Z,14372
2018-03-31T11:37:37.075Z,14628
2018-03-31T11:37:49.695Z,14860
2018-03-31T11:38:02.308Z,15084
2018-03-31T11:38:14.903Z,15292
2018-03-31T11:38:27.494Z,15488
2018-03-31T11:38:40.097Z,15668
2018-03-31T11:38:52.706Z,15848
2018-03-31T11:39:05.325Z,15988
2018-03-31T11:39:17.946Z,16052
2018-03-31T11:39:30.558Z,16076
2018-03-31T11:39:43.150Z,16092
2018-03-31T11:39:55.745Z,16112
2018-03-31T11:40:08.331Z,16156
2018-03-31T11:40:20.927Z,16180
2018-03-31T11:40:33.516Z,16176
2018-03-31T11:40:46.112Z,16132
2018-03-31T11:40:58.742Z,16084
2018-03-31T11:41:11.339Z,16012
2018-03-31T11:41:23.932Z,15900
2018-03-31T11:41:36.518Z,15784
2018-03-31T11:41:49.118Z,15656
2018-03-31T11:42:01.714Z,15560
2018-03-31T11:42:14.334Z,15480
2018-03-31T11:42:27.072Z,15416
2018-03-31T11:42:39.615Z,15332
2018-03-31T11:42:52.229Z,15248
2018-03-31T11:43:04.819Z,15172
2018-03-31T11:43:17.458Z,15100
2018-03-31T11:43:30.089Z,15028
2018-03-31T11:43:42.707Z,14944
2018-03-31T11:43:55.314Z,14860
2018-03-31T11:44:07.910Z,14792
2018-03-31T11:44:20.495Z,14720
2018-03-31T11:44:33.144Z,14604
2018-03-31T11:44:45.673Z,14484
2018-03-31T11:44:58.268Z,14360
2018-03-31T11:45:11.075Z,14232
2018-03-31T11:45:23.691Z,14108
2018-03-31T11:45:36.319Z,13988
2018-03-31T11:45:48.906Z,13868
2018-03-31T11:46:01.531Z,13740
2018-03-31T11:46:14.337Z,13600
2018-03-31T11:46:26.987Z,13460
2018-03-31T11:46:39.552Z,13324
2018-03-31T11:46:52.170Z,13200
2018-03-31T11:47:04.756Z,13080
2018-03-31T11:47:17.347Z,12972
2018-03-31T11:47:29.947Z,12848
2018-03-31T11:47:42.548Z,12732
2018-03-31T11:47:55.356Z,12616
2018-03-31T11:48:07.956Z,12484
2018-03-31T11:48:20.577Z,12348
2018-03-31T11:48:33.153Z,12224
2018-03-31T11:48:45.759Z,12100
2018-03-31T11:48:58.376Z,11956
2018-03-31T11:49:10.977Z,11804
2018-03-31T11:49:23.576Z,11640
2018-03-31T11:49:36.164Z,11476
2018-03-31T11:49:48.761Z,11300
2018-03-31T11:50:01.355Z,11108
2018-03-31T11:50:13.954Z,10888
2018-03-31T11:50:26.570Z,10656
2018-03-31T11:50:39.154Z,10432
2018-03-31T11:50:51.746Z,10212
2018-03-31T11:51:04.343Z,10004
2018-03-31T11:51:17.013Z,9804
2018-03-31T11:51:29.634Z,9616
2018-03-31T11:51:42.236Z,9428
2018-03-31T11:51:54.826Z,9252
2018-03-31T11:52:07.417Z,9072
2018-03-31T11:52:20.011Z,8888
2018-03-31T11:52:32.627Z,8712
2018-03-31T11:52:45.220Z,8540
2018-03-31T11:52:57.808Z,8360
2018-03-31T11:53:10.402Z,8172
2018-03-31T11:53:22.982Z,7988
2018-03-31T11:53:35.608Z,7804
2018-03-31T11:53:48.200Z,7648
2018-03-31T11:54:00.816Z,7508
2018-03-31T11:54:13.415Z,7396
2018-03-31T11:54:26.023Z,7312
2018-03-31T11:54:38.623Z,7228
2018-03-31T11:54:51.219Z,7152
2018-03-31T11:55:03.833Z,7084
2018-03-31T11:55:16.424Z,7016
2018-03-31T11:55:29.012Z,6932
2018-03-31T11:55:41.605Z,6836
2018-03-31T11:55:54.216Z,6736
2018-03-31T11:56:06.810Z,6628
2018-03-31T11:56:19.420Z,6532
2018-03-31T11:56:32.015Z,6416
2018-03-31T11:56:44.604Z,6308
2018-03-31T11:56:57.218Z,6192
2018-03-31T11:57:09.832Z,6084
2018-03-31T11:57:22.420Z,5980
2018-03-31T11:57:35.020Z,5884
2018-03-31T11:57:47.609Z,5800
2018-03-31T11:58:00.199Z,5716
2018-03-31T11:58:12.791Z,5640
2018-03-31T11:58:25.386Z,5580
2018-03-31T11:58:37.971Z,5524
2018-03-31T11:58:50.565Z,5472
2018-03-31T11:59:03.158Z,5432
2018-03-31T11:59:15.770Z,5416
2018-03-31T11:59:28.359Z,5412
2018-03-31T11:59:40.958Z,5416
2018-03-31T11:59:53.570Z,5432
2018-03-31T12:00:06.161Z,5452
2018-03-31T12:00:18.751Z,5460
2018-03-31T12:00:31.357Z,5468
2018-03-31T12:00:43.981Z,5464
2018-03-31T12:00:56.620Z,5452
2018-03-31T12:01:09.162Z,5436
2018-03-31T12:01:21.776Z,5412
2018-03-31T12:01:34.366Z,5392
2018-03-31T12:01:46.998Z,5368
2018-03-31T12:01:59.603Z,5348
2018-03-31T12:02:12.216Z,5332
2018-03-31T12:02:24.834Z,5328
2018-03-31T12:02:37.443Z,5332
2018-03-31T12:02:50.040Z,5360
2018-03-31T12:03:02.632Z,5384
2018-03-31T12:03:15.232Z,5424
2018-03-31T12:03:28.046Z,5480
2018-03-31T12:03:40.636Z,5564
2018-03-31T12:03:53.230Z,5664
2018-03-31T12:04:05.848Z,5772
2018-03-31T12:04:18.434Z,5888
2018-03-31T12:04:31.022Z,5988
2018-03-31T12:04:43.618Z,6076
2018-03-31T12:04:56.211Z,6144
2018-03-31T12:05:08.808Z,6216
2018-03-31T12:05:21.421Z,6276
2018-03-31T12:05:34.005Z,6328
2018-03-31T12:05:46.593Z,6380
2018-03-31T12:05:59.193Z,6436
2018-03-31T12:06:11.800Z,6496
2018-03-31T12:06:24.390Z,6576
2018-03-31T12:06:36.983Z,6664
2018-03-31T12:06:49.577Z,6752
2018-03-31T12:07:02.241Z,6828
2018-03-31T12:07:15.057Z,6904
2018-03-31T12:07:27.653Z,6972
2018-03-31T12:07:40.241Z,7044
2018-03-31T12:07:52.836Z,7124
2018-03-31T12:08:05.424Z,7224
2018-03-31T12:08:18.015Z,7344
2018-03-31T12:08:30.610Z,7476
2018-03-31T12:08:43.199Z,7588
2018-03-31T12:08:55.789Z,7684
2018-03-31T12:09:08.381Z,7764
2018-03-31T12:09:20.994Z,7816
2018-03-31T12:09:33.587Z,7848
2018-03-31T12:09:46.176Z,7852
2018-03-31T12:09:58.770Z,7824
2018-03-31T12:10:11.359Z,7768
2018-03-31T12:10:23.954Z,7692
2018-03-31T12:10:36.545Z,7616
2018-03-31T12:10:49.133Z,7532
2018-03-31T12:11:01.726Z,7456
2018-03-31T12:11:14.316Z,7388
2018-03-31T12:11:26.928Z,7324
2018-03-31T12:11:39.528Z,7268
2018-03-31T12:11:52.139Z,7224
2018-03-31T12:12:04.728Z,7200
2018-03-31T12:12:17.323Z,7184
2018-03-31T12:12:29.934Z,7188
2018-03-31T12:12:42.526Z,7204
2018-03-31T12:12:55.351Z,7240
2018-03-31T12:13:07.946Z,7292
2018-03-31T12:13:20.582Z,7356
2018-03-31T12:13:33.202Z,7412
2018-03-31T12:13:45.790Z,7468
2018-03-31T12:13:58.388Z,7524
2018-03-31T12:14:11.057Z,7592
2018-03-31T12:14:23.626Z,7652
2018-03-31T12:14:36.271Z,7700
2018-03-31T12:14:48.885Z,7724
2018-03-31T12:15:01.508Z,7728
2018-03-31T12:15:14.126Z,7716
2018-03-31T12:15:26.714Z,7680
2018-03-31T12:15:39.311Z,7612
2018-03-31T12:15:52.012Z,7516
2018-03-31T12:16:04.582Z,7400
2018-03-31T12:16:17.181Z,7256
2018-03-31T12:16:29.804Z,7104
2018-03-31T12:16:42.415Z,6936
2018-03-31T12:16:55.008Z,6744
2018-03-31T12:17:07.608Z,6544
2018-03-31T12:17:20.220Z,6360
2018-03-31T12:17:32.812Z,6188
2018-03-31T12:17:45.401Z,6016
2018-03-31T12:17:57.992Z,5852
2018-03-31T12:18:10.606Z,5684
2018-03-31T12:18:23.199Z,5520
2018-03-31T12:18:35.783Z,5368
2018-03-31T12:18:48.377Z,5244
2018-03-31T12:19:00.973Z,5148
2018-03-31T12:19:13.565Z,5080
2018-03-31T12:19:26.204Z,5048
2018-03-31T12:19:38.802Z,5040
2018-03-31T12:19:51.413Z,5052
2018-03-31T12:20:03.999Z,5084
2018-03-31T12:20:16.594Z,5144
2018-03-31T12:20:29.207Z,5224